sensor_id;sensor_type;location;lat;lon;timestamp;P1;durP1;ratioP1;P2;durP2;ratioP2
3791;SDS011;1911;53.768;11.474;2024-02-26T00:01:53;4.10;;;3.47;;
3791;SDS011;1911;53.768;11.474;2024-02-26T00:04:19;7.27;;;3.60;;
3791;SDS011;1911;53.768;11.474;2024-02-26T00:06:45;5.07;;;3.90;;
3791;SDS011;1911;53.768;11.474;2024-02-26T00:09:11;4.67;;;3.30;;
3791;SDS011;1911;53.768;11.474;2024-02-26T00:11:36;5.10;;;3.70;;
3791;SDS011;1911;53.768;11.474;2024-02-26T00:14:02;5.90;;;3.90;;
3791;SDS011;1911;53.768;11.474;2024-02-26T00:16:28;5.77;;;3.63;;
3791;SDS011;1911;53.768;11.474;2024-02-26T00:18:54;3.50;;;3.20;;
3791;SDS011;1911;53.768;11.474;2024-02-26T00:21:19;5.43;;;3.93;;
3791;SDS011;1911;53.768;11.474;2024-02-26T00:23:45;4.40;;;3.47;;
3791;SDS011;1911;53.768;11.474;2024-02-26T00:26:11;4.50;;;3.20;;
3791;SDS011;1911;53.768;11.474;2024-02-26T00:28:36;4.93;;;3.53;;
3791;SDS011;1911;53.768;11.474;2024-02-26T00:31:02;4.50;;;3.80;;
3791;SDS011;1911;53.768;11.474;2024-02-26T00:33:28;4.47;;;3.67;;
3791;SDS011;1911;53.768;11.474;2024-02-26T00:35:53;3.30;;;2.57;;
3791;SDS011;1911;53.768;11.474;2024-02-26T00:38:19;3.77;;;3.00;;
3791;SDS011;1911;53.768;11.474;2024-02-26T00:40:45;3.87;;;3.43;;
3791;SDS011;1911;53.768;11.474;2024-02-26T00:43:11;3.43;;;2.90;;
3791;SDS011;1911;53.768;11.474;2024-02-26T00:45:36;3.60;;;2.87;;
3791;SDS011;1911;53.768;11.474;2024-02-26T00:48:02;4.17;;;3.03;;
3791;SDS011;1911;53.768;11.474;2024-02-26T00:50:35;9.40;;;3.60;;
3791;SDS011;1911;53.768;11.474;2024-02-26T00:53:01;3.80;;;3.20;;
3791;SDS011;1911;53.768;11.474;2024-02-26T00:55:27;5.10;;;3.90;;
3791;SDS011;1911;53.768;11.474;2024-02-26T00:57:52;4.17;;;3.03;;
3791;SDS011;1911;53.768;11.474;2024-02-26T01:00:18;6.10;;;3.07;;
3791;SDS011;1911;53.768;11.474;2024-02-26T01:02:44;4.13;;;3.33;;
3791;SDS011;1911;53.768;11.474;2024-02-26T01:05:11;5.20;;;3.03;;
3791;SDS011;1911;53.768;11.474;2024-02-26T01:07:37;4.87;;;2.70;;
3791;SDS011;1911;53.768;11.474;2024-02-26T01:10:04;4.13;;;3.37;;
3791;SDS011;1911;53.768;11.474;2024-02-26T01:12:31;4.70;;;3.67;;
3791;SDS011;1911;53.768;11.474;2024-02-26T01:15:00;3.27;;;2.70;;
3791;SDS011;1911;53.768;11.474;2024-02-26T01:17:28;5.97;;;2.75;;
3791;SDS011;1911;53.768;11.474;2024-02-26T01:19:53;4.00;;;2.93;;
3791;SDS011;1911;53.768;11.474;2024-02-26T01:22:19;8.63;;;3.40;;
3791;SDS011;1911;53.768;11.474;2024-02-26T01:24:44;4.63;;;3.23;;
3791;SDS011;1911;53.768;11.474;2024-02-26T01:27:10;3.60;;;2.53;;
3791;SDS011;1911;53.768;11.474;2024-02-26T01:29:36;5.23;;;3.13;;
3791;SDS011;1911;53.768;11.474;2024-02-26T01:32:01;3.53;;;2.70;;
3791;SDS011;1911;53.768;11.474;2024-02-26T01:34:29;3.87;;;2.30;;
3791;SDS011;1911;53.768;11.474;2024-02-26T01:36:54;3.40;;;3.00;;
3791;SDS011;1911;53.768;11.474;2024-02-26T01:39:21;3.60;;;2.60;;
3791;SDS011;1911;53.768;11.474;2024-02-26T01:41:47;3.03;;;2.22;;
3791;SDS011;1911;53.768;11.474;2024-02-26T01:44:13;4.33;;;3.07;;
3791;SDS011;1911;53.768;11.474;2024-02-26T01:46:38;3.90;;;3.13;;
3791;SDS011;1911;53.768;11.474;2024-02-26T01:49:04;3.00;;;2.28;;
3791;SDS011;1911;53.768;11.474;2024-02-26T01:51:31;4.18;;;3.00;;
3791;SDS011;1911;53.768;11.474;2024-02-26T01:53:58;3.80;;;2.53;;
3791;SDS011;1911;53.768;11.474;2024-02-26T01:56:25;2.72;;;2.53;;
3791;SDS011;1911;53.768;11.474;2024-02-26T01:58:57;3.73;;;2.93;;
3791;SDS011;1911;53.768;11.474;2024-02-26T02:01:37;3.43;;;3.10;;
3791;SDS011;1911;53.768;11.474;2024-02-26T02:04:09;4.28;;;2.25;;
3791;SDS011;1911;53.768;11.474;2024-02-26T02:06:35;5.47;;;2.70;;
3791;SDS011;1911;53.768;11.474;2024-02-26T02:09:01;4.32;;;2.58;;
3791;SDS011;1911;53.768;11.474;2024-02-26T02:11:31;3.70;;;2.75;;
3791;SDS011;1911;53.768;11.474;2024-02-26T02:13:59;3.33;;;2.60;;
3791;SDS011;1911;53.768;11.474;2024-02-26T02:16:25;3.93;;;3.33;;
3791;SDS011;1911;53.768;11.474;2024-02-26T02:18:51;4.10;;;2.90;;
3791;SDS011;1911;53.768;11.474;2024-02-26T02:21:16;3.07;;;2.20;;
3791;SDS011;1911;53.768;11.474;2024-02-26T02:23:42;3.30;;;2.60;;
3791;SDS011;1911;53.768;11.474;2024-02-26T02:26:11;4.30;;;3.30;;
3791;SDS011;1911;53.768;11.474;2024-02-26T02:28:38;3.67;;;2.90;;
3791;SDS011;1911;53.768;11.474;2024-02-26T02:31:04;2.80;;;2.55;;
3791;SDS011;1911;53.768;11.474;2024-02-26T02:33:30;5.73;;;2.67;;
3791;SDS011;1911;53.768;11.474;2024-02-26T02:35:56;3.47;;;2.53;;
3791;SDS011;1911;53.768;11.474;2024-02-26T02:38:23;3.23;;;2.47;;
3791;SDS011;1911;53.768;11.474;2024-02-26T02:40:50;2.92;;;2.58;;
3791;SDS011;1911;53.768;11.474;2024-02-26T02:43:16;2.93;;;2.60;;
3791;SDS011;1911;53.768;11.474;2024-02-26T02:45:42;3.33;;;2.37;;
3791;SDS011;1911;53.768;11.474;2024-02-26T02:48:07;3.80;;;2.70;;
3791;SDS011;1911;53.768;11.474;2024-02-26T02:50:33;3.10;;;2.30;;
3791;SDS011;1911;53.768;11.474;2024-02-26T02:52:58;2.50;;;2.30;;
3791;SDS011;1911;53.768;11.474;2024-02-26T02:55:24;4.33;;;2.70;;
3791;SDS011;1911;53.768;11.474;2024-02-26T02:57:50;5.00;;;3.20;;
3791;SDS011;1911;53.768;11.474;2024-02-26T03:00:15;6.03;;;3.53;;
3791;SDS011;1911;53.768;11.474;2024-02-26T03:02:41;6.00;;;3.42;;
3791;SDS011;1911;53.768;11.474;2024-02-26T03:05:08;3.65;;;3.20;;
3791;SDS011;1911;53.768;11.474;2024-02-26T03:07:33;3.43;;;2.73;;
3791;SDS011;1911;53.768;11.474;2024-02-26T03:09:59;4.60;;;2.80;;
3791;SDS011;1911;53.768;11.474;2024-02-26T03:12:24;3.40;;;2.73;;
3791;SDS011;1911;53.768;11.474;2024-02-26T03:14:50;5.07;;;3.07;;
3791;SDS011;1911;53.768;11.474;2024-02-26T03:17:16;3.97;;;3.30;;
3791;SDS011;1911;53.768;11.474;2024-02-26T03:19:43;4.23;;;2.70;;
3791;SDS011;1911;53.768;11.474;2024-02-26T03:22:11;4.25;;;2.70;;
3791;SDS011;1911;53.768;11.474;2024-02-26T03:24:37;4.07;;;3.50;;
3791;SDS011;1911;53.768;11.474;2024-02-26T03:27:03;5.63;;;3.73;;
3791;SDS011;1911;53.768;11.474;2024-02-26T03:29:34;6.13;;;4.35;;
3791;SDS011;1911;53.768;11.474;2024-02-26T03:32:00;7.43;;;3.67;;
3791;SDS011;1911;53.768;11.474;2024-02-26T03:34:25;6.30;;;4.10;;
3791;SDS011;1911;53.768;11.474;2024-02-26T03:36:52;4.88;;;3.38;;
3791;SDS011;1911;53.768;11.474;2024-02-26T03:39:17;9.47;;;3.43;;
3791;SDS011;1911;53.768;11.474;2024-02-26T03:41:43;5.90;;;3.23;;
3791;SDS011;1911;53.768;11.474;2024-02-26T03:44:08;3.37;;;3.00;;
3791;SDS011;1911;53.768;11.474;2024-02-26T03:46:34;5.75;;;4.13;;
3791;SDS011;1911;53.768;11.474;2024-02-26T03:49:00;6.80;;;3.83;;
3791;SDS011;1911;53.768;11.474;2024-02-26T03:51:25;7.30;;;3.73;;
3791;SDS011;1911;53.768;11.474;2024-02-26T03:53:53;8.65;;;2.80;;
3791;SDS011;1911;53.768;11.474;2024-02-26T03:56:18;6.83;;;3.90;;
3791;SDS011;1911;53.768;11.474;2024-02-26T03:58:45;5.10;;;3.78;;
3791;SDS011;1911;53.768;11.474;2024-02-26T04:01:11;8.00;;;4.17;;
3791;SDS011;1911;53.768;11.474;2024-02-26T04:03:36;5.07;;;3.70;;
3791;SDS011;1911;53.768;11.474;2024-02-26T04:06:02;4.63;;;3.50;;
3791;SDS011;1911;53.768;11.474;2024-02-26T04:08:28;5.05;;;4.25;;
3791;SDS011;1911;53.768;11.474;2024-02-26T04:10:54;4.63;;;4.00;;
3791;SDS011;1911;53.768;11.474;2024-02-26T04:13:19;3.57;;;3.20;;
3791;SDS011;1911;53.768;11.474;2024-02-26T04:15:45;4.40;;;3.70;;
3791;SDS011;1911;53.768;11.474;2024-02-26T04:18:11;3.63;;;3.28;;
3791;SDS011;1911;53.768;11.474;2024-02-26T04:20:37;3.30;;;2.77;;
3791;SDS011;1911;53.768;11.474;2024-02-26T04:23:03;8.00;;;4.40;;
3791;SDS011;1911;53.768;11.474;2024-02-26T04:25:29;4.10;;;3.40;;
3791;SDS011;1911;53.768;11.474;2024-02-26T04:27:54;4.20;;;3.80;;
3791;SDS011;1911;53.768;11.474;2024-02-26T04:30:20;5.20;;;3.57;;
3791;SDS011;1911;53.768;11.474;2024-02-26T04:32:46;3.40;;;3.00;;
3791;SDS011;1911;53.768;11.474;2024-02-26T04:35:11;4.77;;;3.53;;
3791;SDS011;1911;53.768;11.474;2024-02-26T04:37:37;5.83;;;3.43;;
3791;SDS011;1911;53.768;11.474;2024-02-26T04:40:03;4.23;;;3.30;;
3791;SDS011;1911;53.768;11.474;2024-02-26T04:42:29;4.22;;;2.95;;
3791;SDS011;1911;53.768;11.474;2024-02-26T04:44:54;3.77;;;3.37;;
3791;SDS011;1911;53.768;11.474;2024-02-26T04:47:20;5.70;;;3.60;;
3791;SDS011;1911;53.768;11.474;2024-02-26T04:49:47;4.45;;;3.67;;
3791;SDS011;1911;53.768;11.474;2024-02-26T04:52:14;5.57;;;3.65;;
3791;SDS011;1911;53.768;11.474;2024-02-26T04:54:39;5.40;;;4.10;;
3791;SDS011;1911;53.768;11.474;2024-02-26T04:57:05;4.90;;;4.30;;
3791;SDS011;1911;53.768;11.474;2024-02-26T04:59:30;4.13;;;3.57;;
3791;SDS011;1911;53.768;11.474;2024-02-26T05:01:56;5.40;;;3.70;;
3791;SDS011;1911;53.768;11.474;2024-02-26T05:04:21;6.50;;;4.53;;
3791;SDS011;1911;53.768;11.474;2024-02-26T05:06:47;6.37;;;4.10;;
3791;SDS011;1911;53.768;11.474;2024-02-26T05:09:13;4.90;;;3.50;;
3791;SDS011;1911;53.768;11.474;2024-02-26T05:11:38;5.90;;;3.70;;
3791;SDS011;1911;53.768;11.474;2024-02-26T05:14:04;4.93;;;3.90;;
3791;SDS011;1911;53.768;11.474;2024-02-26T05:16:29;4.53;;;3.47;;
3791;SDS011;1911;53.768;11.474;2024-02-26T05:18:56;4.00;;;3.20;;
3791;SDS011;1911;53.768;11.474;2024-02-26T05:21:22;6.10;;;3.60;;
3791;SDS011;1911;53.768;11.474;2024-02-26T05:23:47;4.43;;;3.50;;
3791;SDS011;1911;53.768;11.474;2024-02-26T05:26:18;5.57;;;3.93;;
3791;SDS011;1911;53.768;11.474;2024-02-26T05:28:45;4.38;;;3.65;;
3791;SDS011;1911;53.768;11.474;2024-02-26T05:31:12;4.73;;;3.70;;
3791;SDS011;1911;53.768;11.474;2024-02-26T05:33:38;4.88;;;3.53;;
3791;SDS011;1911;53.768;11.474;2024-02-26T05:36:04;4.00;;;3.43;;
3791;SDS011;1911;53.768;11.474;2024-02-26T05:38:30;7.80;;;4.20;;
3791;SDS011;1911;53.768;11.474;2024-02-26T05:40:56;6.00;;;3.90;;
3791;SDS011;1911;53.768;11.474;2024-02-26T05:43:25;5.68;;;4.03;;
3791;SDS011;1911;53.768;11.474;2024-02-26T05:45:51;7.88;;;3.83;;
3791;SDS011;1911;53.768;11.474;2024-02-26T05:48:17;5.40;;;4.13;;
3791;SDS011;1911;53.768;11.474;2024-02-26T05:50:44;4.32;;;3.47;;
3791;SDS011;1911;53.768;11.474;2024-02-26T05:53:10;6.40;;;4.30;;
3791;SDS011;1911;53.768;11.474;2024-02-26T05:55:35;9.70;;;4.20;;
3791;SDS011;1911;53.768;11.474;2024-02-26T05:58:01;5.80;;;4.00;;
3791;SDS011;1911;53.768;11.474;2024-02-26T06:00:26;4.70;;;3.87;;
3791;SDS011;1911;53.768;11.474;2024-02-26T06:02:52;6.53;;;4.53;;
3791;SDS011;1911;53.768;11.474;2024-02-26T06:05:18;5.57;;;3.83;;
3791;SDS011;1911;53.768;11.474;2024-02-26T06:07:43;5.57;;;4.50;;
3791;SDS011;1911;53.768;11.474;2024-02-26T06:10:09;5.33;;;4.13;;
3791;SDS011;1911;53.768;11.474;2024-02-26T06:12:35;4.93;;;4.40;;
3791;SDS011;1911;53.768;11.474;2024-02-26T06:15:01;7.28;;;4.80;;
3791;SDS011;1911;53.768;11.474;2024-02-26T06:17:27;7.03;;;4.43;;
3791;SDS011;1911;53.768;11.474;2024-02-26T06:19:53;5.53;;;3.80;;
3791;SDS011;1911;53.768;11.474;2024-02-26T06:22:19;5.40;;;4.67;;
3791;SDS011;1911;53.768;11.474;2024-02-26T06:24:44;5.53;;;4.33;;
3791;SDS011;1911;53.768;11.474;2024-02-26T06:27:10;6.13;;;4.77;;
3791;SDS011;1911;53.768;11.474;2024-02-26T06:29:36;7.90;;;4.60;;
3791;SDS011;1911;53.768;11.474;2024-02-26T06:32:01;6.47;;;4.97;;
3791;SDS011;1911;53.768;11.474;2024-02-26T06:34:27;9.20;;;5.27;;
3791;SDS011;1911;53.768;11.474;2024-02-26T06:36:52;7.73;;;5.20;;
3791;SDS011;1911;53.768;11.474;2024-02-26T06:39:18;8.47;;;4.73;;
3791;SDS011;1911;53.768;11.474;2024-02-26T06:41:44;6.53;;;4.70;;
3791;SDS011;1911;53.768;11.474;2024-02-26T06:44:11;7.22;;;4.85;;
3791;SDS011;1911;53.768;11.474;2024-02-26T06:46:37;7.50;;;5.82;;
3791;SDS011;1911;53.768;11.474;2024-02-26T06:49:03;6.70;;;5.70;;
3791;SDS011;1911;53.768;11.474;2024-02-26T06:51:29;7.03;;;5.80;;
3791;SDS011;1911;53.768;11.474;2024-02-26T06:53:54;5.97;;;4.10;;
3791;SDS011;1911;53.768;11.474;2024-02-26T06:56:20;5.00;;;4.50;;
3791;SDS011;1911;53.768;11.474;2024-02-26T06:58:45;7.70;;;4.73;;
3791;SDS011;1911;53.768;11.474;2024-02-26T07:01:12;5.43;;;4.37;;
3791;SDS011;1911;53.768;11.474;2024-02-26T07:03:39;6.63;;;4.18;;
3791;SDS011;1911;53.768;11.474;2024-02-26T07:06:05;5.68;;;4.70;;
3791;SDS011;1911;53.768;11.474;2024-02-26T07:08:31;6.65;;;5.57;;
3791;SDS011;1911;53.768;11.474;2024-02-26T07:10:57;9.13;;;6.00;;
3791;SDS011;1911;53.768;11.474;2024-02-26T07:13:23;11.90;;;6.43;;
3791;SDS011;1911;53.768;11.474;2024-02-26T07:15:48;11.13;;;6.33;;
3791;SDS011;1911;53.768;11.474;2024-02-26T07:18:14;9.90;;;7.40;;
3791;SDS011;1911;53.768;11.474;2024-02-26T07:20:39;9.47;;;6.00;;
3791;SDS011;1911;53.768;11.474;2024-02-26T07:23:05;7.73;;;5.77;;
3791;SDS011;1911;53.768;11.474;2024-02-26T07:25:33;11.05;;;6.45;;
3791;SDS011;1911;53.768;11.474;2024-02-26T07:27:58;6.50;;;5.80;;
3791;SDS011;1911;53.768;11.474;2024-02-26T07:30:24;6.30;;;4.97;;
3791;SDS011;1911;53.768;11.474;2024-02-26T07:32:50;7.03;;;4.97;;
3791;SDS011;1911;53.768;11.474;2024-02-26T07:35:15;7.07;;;4.30;;
3791;SDS011;1911;53.768;11.474;2024-02-26T07:37:42;7.72;;;5.50;;
3791;SDS011;1911;53.768;11.474;2024-02-26T07:40:08;8.87;;;5.90;;
3791;SDS011;1911;53.768;11.474;2024-02-26T07:42:34;9.10;;;5.83;;
3791;SDS011;1911;53.768;11.474;2024-02-26T07:44:59;6.27;;;4.97;;
3791;SDS011;1911;53.768;11.474;2024-02-26T07:47:25;13.87;;;7.87;;
3791;SDS011;1911;53.768;11.474;2024-02-26T07:49:51;12.37;;;7.70;;
3791;SDS011;1911;53.768;11.474;2024-02-26T07:52:16;10.13;;;7.20;;
3791;SDS011;1911;53.768;11.474;2024-02-26T07:54:42;12.37;;;7.80;;
3791;SDS011;1911;53.768;11.474;2024-02-26T07:57:07;10.43;;;6.27;;
3791;SDS011;1911;53.768;11.474;2024-02-26T07:59:33;8.10;;;6.60;;
3791;SDS011;1911;53.768;11.474;2024-02-26T08:01:59;7.67;;;5.77;;
3791;SDS011;1911;53.768;11.474;2024-02-26T08:04:25;7.60;;;6.28;;
3791;SDS011;1911;53.768;11.474;2024-02-26T08:06:51;8.65;;;5.95;;
3791;SDS011;1911;53.768;11.474;2024-02-26T08:09:17;7.70;;;5.30;;
3791;SDS011;1911;53.768;11.474;2024-02-26T08:11:42;6.43;;;5.07;;
3791;SDS011;1911;53.768;11.474;2024-02-26T08:14:08;7.83;;;5.60;;
3791;SDS011;1911;53.768;11.474;2024-02-26T08:16:34;9.50;;;6.60;;
3791;SDS011;1911;53.768;11.474;2024-02-26T08:18:59;7.87;;;5.60;;
3791;SDS011;1911;53.768;11.474;2024-02-26T08:21:25;7.30;;;5.57;;
3791;SDS011;1911;53.768;11.474;2024-02-26T08:23:50;5.80;;;5.10;;
3791;SDS011;1911;53.768;11.474;2024-02-26T08:26:16;8.80;;;5.77;;
3791;SDS011;1911;53.768;11.474;2024-02-26T08:28:41;6.80;;;5.57;;
3791;SDS011;1911;53.768;11.474;2024-02-26T08:31:07;6.13;;;5.00;;
3791;SDS011;1911;53.768;11.474;2024-02-26T08:33:33;7.93;;;6.27;;
3791;SDS011;1911;53.768;11.474;2024-02-26T08:36:03;8.63;;;6.67;;
3791;SDS011;1911;53.768;11.474;2024-02-26T08:38:30;7.73;;;4.93;;
3791;SDS011;1911;53.768;11.474;2024-02-26T08:40:55;6.67;;;4.70;;
3791;SDS011;1911;53.768;11.474;2024-02-26T08:43:21;6.00;;;4.63;;
3791;SDS011;1911;53.768;11.474;2024-02-26T08:45:46;5.23;;;4.47;;
3791;SDS011;1911;53.768;11.474;2024-02-26T08:48:12;5.07;;;4.57;;
3791;SDS011;1911;53.768;11.474;2024-02-26T08:50:37;4.33;;;3.50;;
3791;SDS011;1911;53.768;11.474;2024-02-26T08:53:03;6.17;;;4.40;;
3791;SDS011;1911;53.768;11.474;2024-02-26T08:55:29;4.70;;;4.20;;
3791;SDS011;1911;53.768;11.474;2024-02-26T08:57:54;6.93;;;4.37;;
3791;SDS011;1911;53.768;11.474;2024-02-26T09:00:20;4.90;;;3.67;;
3791;SDS011;1911;53.768;11.474;2024-02-26T09:02:49;6.33;;;4.20;;
3791;SDS011;1911;53.768;11.474;2024-02-26T09:05:15;4.97;;;4.47;;
3791;SDS011;1911;53.768;11.474;2024-02-26T09:07:40;5.07;;;4.57;;
3791;SDS011;1911;53.768;11.474;2024-02-26T09:10:06;10.93;;;3.90;;
3791;SDS011;1911;53.768;11.474;2024-02-26T09:12:35;5.07;;;3.90;;
3791;SDS011;1911;53.768;11.474;2024-02-26T09:15:01;5.17;;;3.80;;
3791;SDS011;1911;53.768;11.474;2024-02-26T09:17:27;4.03;;;3.63;;
3791;SDS011;1911;53.768;11.474;2024-02-26T09:19:52;3.93;;;3.53;;
3791;SDS011;1911;53.768;11.474;2024-02-26T09:22:18;8.07;;;3.40;;
3791;SDS011;1911;53.768;11.474;2024-02-26T09:24:43;5.63;;;4.03;;
3791;SDS011;1911;53.768;11.474;2024-02-26T09:27:09;3.87;;;3.47;;
3791;SDS011;1911;53.768;11.474;2024-02-26T09:29:35;4.93;;;3.80;;
3791;SDS011;1911;53.768;11.474;2024-02-26T09:32:01;5.43;;;3.90;;
3791;SDS011;1911;53.768;11.474;2024-02-26T09:34:26;4.40;;;2.97;;
3791;SDS011;1911;53.768;11.474;2024-02-26T09:36:52;7.27;;;3.73;;
3791;SDS011;1911;53.768;11.474;2024-02-26T09:39:18;5.27;;;4.13;;
3791;SDS011;1911;53.768;11.474;2024-02-26T09:41:46;6.90;;;3.70;;
3791;SDS011;1911;53.768;11.474;2024-02-26T09:44:14;4.13;;;3.47;;
3791;SDS011;1911;53.768;11.474;2024-02-26T09:46:44;5.70;;;4.37;;
3791;SDS011;1911;53.768;11.474;2024-02-26T09:49:10;7.20;;;5.07;;
3791;SDS011;1911;53.768;11.474;2024-02-26T09:51:37;6.60;;;4.30;;
3791;SDS011;1911;53.768;11.474;2024-02-26T09:54:04;4.67;;;4.17;;
3791;SDS011;1911;53.768;11.474;2024-02-26T09:56:34;6.10;;;3.73;;
3791;SDS011;1911;53.768;11.474;2024-02-26T09:59:00;11.60;;;4.27;;
3791;SDS011;1911;53.768;11.474;2024-02-26T10:01:28;5.40;;;3.97;;
3791;SDS011;1911;53.768;11.474;2024-02-26T10:03:58;4.33;;;3.50;;
3791;SDS011;1911;53.768;11.474;2024-02-26T10:06:26;4.93;;;3.70;;
3791;SDS011;1911;53.768;11.474;2024-02-26T10:08:53;4.60;;;3.77;;
3791;SDS011;1911;53.768;11.474;2024-02-26T10:11:19;4.47;;;4.07;;
3791;SDS011;1911;53.768;11.474;2024-02-26T10:13:47;6.67;;;3.80;;
3791;SDS011;1911;53.768;11.474;2024-02-26T10:16:12;3.70;;;3.37;;
3791;SDS011;1911;53.768;11.474;2024-02-26T10:18:52;7.77;;;4.20;;
3791;SDS011;1911;53.768;11.474;2024-02-26T10:21:21;4.00;;;3.60;;
3791;SDS011;1911;53.768;11.474;2024-02-26T10:23:47;4.83;;;3.77;;
3791;SDS011;1911;53.768;11.474;2024-02-26T10:26:14;4.37;;;3.23;;
3791;SDS011;1911;53.768;11.474;2024-02-26T10:28:41;7.50;;;3.50;;
3791;SDS011;1911;53.768;11.474;2024-02-26T10:31:08;3.83;;;3.33;;
3791;SDS011;1911;53.768;11.474;2024-02-26T10:33:38;4.83;;;3.70;;
3791;SDS011;1911;53.768;11.474;2024-02-26T10:36:04;4.70;;;4.00;;
3791;SDS011;1911;53.768;11.474;2024-02-26T10:38:34;4.30;;;3.90;;
3791;SDS011;1911;53.768;11.474;2024-02-26T10:41:04;6.13;;;4.47;;
3791;SDS011;1911;53.768;11.474;2024-02-26T10:43:31;5.77;;;4.80;;
3791;SDS011;1911;53.768;11.474;2024-02-26T10:45:56;8.40;;;6.03;;
3791;SDS011;1911;53.768;11.474;2024-02-26T10:48:22;6.43;;;5.40;;
3791;SDS011;1911;53.768;11.474;2024-02-26T10:50:48;6.63;;;5.00;;
3791;SDS011;1911;53.768;11.474;2024-02-26T10:53:16;5.10;;;4.53;;
3791;SDS011;1911;53.768;11.474;2024-02-26T10:55:46;6.77;;;4.10;;
3791;SDS011;1911;53.768;11.474;2024-02-26T10:58:25;3.60;;;3.30;;
3791;SDS011;1911;53.768;11.474;2024-02-26T11:00:53;7.83;;;3.33;;
3791;SDS011;1911;53.768;11.474;2024-02-26T11:03:21;6.40;;;4.53;;
3791;SDS011;1911;53.768;11.474;2024-02-26T11:05:49;8.40;;;4.30;;
3791;SDS011;1911;53.768;11.474;2024-02-26T11:11:37;5.97;;;3.80;;
3791;SDS011;1911;53.768;11.474;2024-02-26T11:14:03;5.50;;;4.03;;
3791;SDS011;1911;53.768;11.474;2024-02-26T11:16:30;7.37;;;3.60;;
3791;SDS011;1911;53.768;11.474;2024-02-26T11:18:57;5.50;;;3.90;;
3791;SDS011;1911;53.768;11.474;2024-02-26T11:21:23;7.13;;;4.87;;
3791;SDS011;1911;53.768;11.474;2024-02-26T11:23:54;6.53;;;4.37;;
3791;SDS011;1911;53.768;11.474;2024-02-26T11:26:21;8.27;;;4.60;;
3791;SDS011;1911;53.768;11.474;2024-02-26T11:28:48;6.30;;;4.17;;
3791;SDS011;1911;53.768;11.474;2024-02-26T11:31:16;4.30;;;3.90;;
3791;SDS011;1911;53.768;11.474;2024-02-26T11:33:43;10.23;;;5.00;;
3791;SDS011;1911;53.768;11.474;2024-02-26T11:36:09;6.10;;;4.57;;
3791;SDS011;1911;53.768;11.474;2024-02-26T11:38:36;7.37;;;5.67;;
3791;SDS011;1911;53.768;11.474;2024-02-26T11:41:02;5.03;;;4.50;;
3791;SDS011;1911;53.768;11.474;2024-02-26T11:46:30;6.10;;;4.83;;
3791;SDS011;1911;53.768;11.474;2024-02-26T11:49:00;6.67;;;5.20;;
3791;SDS011;1911;53.768;11.474;2024-02-26T11:51:28;14.07;;;10.90;;
3791;SDS011;1911;53.768;11.474;2024-02-26T12:02:50;10.63;;;8.07;;
3791;SDS011;1911;53.768;11.474;2024-02-26T12:05:25;10.50;;;9.40;;
3791;SDS011;1911;53.768;11.474;2024-02-26T12:07:54;10.27;;;9.13;;
3791;SDS011;1911;53.768;11.474;2024-02-26T12:10:26;10.43;;;9.20;;
3791;SDS011;1911;53.768;11.474;2024-02-26T12:13:15;7.90;;;7.10;;
3791;SDS011;1911;53.768;11.474;2024-02-26T12:15:43;11.80;;;9.50;;
3791;SDS011;1911;53.768;11.474;2024-02-26T12:18:10;12.83;;;10.10;;
3791;SDS011;1911;53.768;11.474;2024-02-26T12:20:42;13.63;;;10.40;;
3791;SDS011;1911;53.768;11.474;2024-02-26T12:23:15;18.80;;;14.40;;
3791;SDS011;1911;53.768;11.474;2024-02-26T12:25:43;16.77;;;12.10;;
3791;SDS011;1911;53.768;11.474;2024-02-26T12:28:09;15.30;;;10.90;;
3791;SDS011;1911;53.768;11.474;2024-02-26T12:30:35;14.10;;;10.60;;
3791;SDS011;1911;53.768;11.474;2024-02-26T12:33:00;11.30;;;9.33;;
3791;SDS011;1911;53.768;11.474;2024-02-26T12:35:27;13.27;;;10.10;;
3791;SDS011;1911;53.768;11.474;2024-02-26T12:37:53;14.47;;;10.63;;
3791;SDS011;1911;53.768;11.474;2024-02-26T12:40:19;11.20;;;9.97;;
3791;SDS011;1911;53.768;11.474;2024-02-26T12:42:45;12.23;;;9.80;;
3791;SDS011;1911;53.768;11.474;2024-02-26T12:45:11;11.70;;;9.80;;
3791;SDS011;1911;53.768;11.474;2024-02-26T12:47:42;14.40;;;11.00;;
3791;SDS011;1911;53.768;11.474;2024-02-26T12:50:08;11.73;;;9.83;;
3791;SDS011;1911;53.768;11.474;2024-02-26T12:52:35;11.57;;;9.80;;
3791;SDS011;1911;53.768;11.474;2024-02-26T12:55:05;13.50;;;10.57;;
3791;SDS011;1911;53.768;11.474;2024-02-26T12:57:37;17.83;;;9.77;;
3791;SDS011;1911;53.768;11.474;2024-02-26T13:00:04;13.80;;;10.20;;
3791;SDS011;1911;53.768;11.474;2024-02-26T13:02:34;11.50;;;10.27;;
3791;SDS011;1911;53.768;11.474;2024-02-26T13:05:01;10.97;;;9.87;;
3791;SDS011;1911;53.768;11.474;2024-02-26T13:07:28;13.00;;;9.70;;
3791;SDS011;1911;53.768;11.474;2024-02-26T13:09:53;15.10;;;11.13;;
3791;SDS011;1911;53.768;11.474;2024-02-26T13:12:20;15.30;;;11.07;;
3791;SDS011;1911;53.768;11.474;2024-02-26T13:14:46;15.90;;;11.10;;
3791;SDS011;1911;53.768;11.474;2024-02-26T13:17:11;16.07;;;11.60;;
3791;SDS011;1911;53.768;11.474;2024-02-26T13:19:37;15.00;;;11.50;;
3791;SDS011;1911;53.768;11.474;2024-02-26T13:22:03;16.67;;;11.37;;
3791;SDS011;1911;53.768;11.474;2024-02-26T13:24:31;15.50;;;11.80;;
3791;SDS011;1911;53.768;11.474;2024-02-26T13:26:57;18.07;;;12.17;;
3791;SDS011;1911;53.768;11.474;2024-02-26T13:29:22;17.10;;;10.60;;
3791;SDS011;1911;53.768;11.474;2024-02-26T13:31:54;14.67;;;10.67;;
3791;SDS011;1911;53.768;11.474;2024-02-26T13:34:25;16.20;;;11.57;;
3791;SDS011;1911;53.768;11.474;2024-02-26T13:36:53;15.90;;;11.73;;
3791;SDS011;1911;53.768;11.474;2024-02-26T13:39:23;19.50;;;11.77;;
3791;SDS011;1911;53.768;11.474;2024-02-26T13:41:49;18.23;;;12.07;;
3791;SDS011;1911;53.768;11.474;2024-02-26T13:44:16;22.07;;;12.90;;
3791;SDS011;1911;53.768;11.474;2024-02-26T13:46:42;16.20;;;12.17;;
3791;SDS011;1911;53.768;11.474;2024-02-26T13:49:08;18.17;;;11.53;;
3791;SDS011;1911;53.768;11.474;2024-02-26T13:51:34;18.20;;;12.57;;
3791;SDS011;1911;53.768;11.474;2024-02-26T13:54:01;17.93;;;11.63;;
3791;SDS011;1911;53.768;11.474;2024-02-26T13:56:27;18.33;;;12.90;;
3791;SDS011;1911;53.768;11.474;2024-02-26T13:58:53;19.57;;;13.80;;
3791;SDS011;1911;53.768;11.474;2024-02-26T14:01:19;21.43;;;13.60;;
3791;SDS011;1911;53.768;11.474;2024-02-26T14:03:44;22.07;;;13.70;;
3791;SDS011;1911;53.768;11.474;2024-02-26T14:06:10;24.67;;;14.20;;
3791;SDS011;1911;53.768;11.474;2024-02-26T14:08:36;20.17;;;12.63;;
3791;SDS011;1911;53.768;11.474;2024-02-26T14:11:01;20.97;;;13.30;;
3791;SDS011;1911;53.768;11.474;2024-02-26T14:13:27;23.33;;;13.70;;
3791;SDS011;1911;53.768;11.474;2024-02-26T14:15:52;24.10;;;14.00;;
3791;SDS011;1911;53.768;11.474;2024-02-26T14:18:18;21.80;;;13.10;;
3791;SDS011;1911;53.768;11.474;2024-02-26T14:20:43;21.57;;;12.53;;
3791;SDS011;1911;53.768;11.474;2024-02-26T14:23:09;23.10;;;12.50;;
3791;SDS011;1911;53.768;11.474;2024-02-26T14:25:35;24.73;;;13.80;;
3791;SDS011;1911;53.768;11.474;2024-02-26T14:28:01;25.00;;;12.97;;
3791;SDS011;1911;53.768;11.474;2024-02-26T14:30:27;28.20;;;14.47;;
3791;SDS011;1911;53.768;11.474;2024-02-26T14:32:53;20.93;;;13.50;;
3791;SDS011;1911;53.768;11.474;2024-02-26T14:35:19;22.70;;;15.40;;
3791;SDS011;1911;53.768;11.474;2024-02-26T14:37:45;31.10;;;15.97;;
3791;SDS011;1911;53.768;11.474;2024-02-26T14:40:12;28.13;;;16.60;;
3791;SDS011;1911;53.768;11.474;2024-02-26T14:42:38;32.03;;;17.10;;
3791;SDS011;1911;53.768;11.474;2024-02-26T14:45:04;25.60;;;14.20;;
3791;SDS011;1911;53.768;11.474;2024-02-26T14:47:33;29.17;;;14.63;;
3791;SDS011;1911;53.768;11.474;2024-02-26T14:49:59;27.53;;;13.67;;
3791;SDS011;1911;53.768;11.474;2024-02-26T14:52:25;20.37;;;10.87;;
3791;SDS011;1911;53.768;11.474;2024-02-26T14:54:50;26.10;;;12.90;;
3791;SDS011;1911;53.768;11.474;2024-02-26T14:57:16;26.23;;;12.97;;
3791;SDS011;1911;53.768;11.474;2024-02-26T14:59:42;25.50;;;13.23;;
3791;SDS011;1911;53.768;11.474;2024-02-26T15:02:09;22.10;;;12.43;;
3791;SDS011;1911;53.768;11.474;2024-02-26T15:04:35;29.47;;;16.43;;
3791;SDS011;1911;53.768;11.474;2024-02-26T15:07:01;28.43;;;14.80;;